Latest Weather Observations for Double Island Point

IDQ60801

Issued at 10:02 am EST Thursday 30 July 2015 (issued every 30 minutes, with the page automatically refreshed every 10 minutes)

About weather observations | Map of weather stations | Latest weather observations for QLD | Other Formats
Station Details ID: 040068 Name: DOUBLE ISLAND POINT LIGHTHOUSE Lat: -25.93 Lon: 153.19 Height: 95.64 m
Data from the previous 72 hours. | See also: Recent months at Double Island Point
Date/Time
EST
Temp
°C
App
Temp
°C
Dew
Point
Rel
Hum
%
Delta-T
°C
Wind Press
QNH
hPa
Press
MSL
hPa
Rain
since 9 am
mm
Dir
 
Spd
km/h
Gust
km/h
Spd
kts
Gust
kts
30/10:00am 16.7 11.1 11.4 71 2.9 S 32 43 17 23 1026.9 1026.7 0.0
30/09:30am 16.2 9.9 10.9 71 2.8 S 35 43 19 23 1026.8 1026.6 0.0
30/09:00am 16.0 9.6 10.7 71 2.8 S 35 44 19 24 1026.8 1026.6 0.0
30/08:30am 15.6 8.9 9.7 68 3.1 S 35 43 19 23 1026.6 1026.4 0.0
30/08:00am 15.6 8.9 9.7 68 3.1 S 35 46 19 25 1026.4 1026.2 0.0
30/07:30am 15.0 8.1 8.9 67 3.1 S 35 43 19 23 1026.5 1026.3 0.0
30/07:00am 14.9 8.5 9.5 70 2.8 S 33 39 18 21 1026.2 1026.0 0.0
30/06:30am 15.2 8.5 9.8 70 2.8 S 35 43 19 23 1026.1 1025.9 0.0
30/06:00am 15.3 9.4 10.5 73 2.5 S 32 37 17 20 1026.0 1025.8 0.0
30/05:30am 15.0 9.1 10.4 74 2.4 S 32 39 17 21 1025.7 1025.5 0.0
30/05:00am 14.9 8.9 10.1 73 2.5 S 32 39 17 21 1026.0 1025.8 0.0
30/04:30am 15.1 8.9 10.1 72 2.6 S 33 41 18 22 1026.0 1025.8 0.0
30/04:00am 15.0 9.1 10.6 75 2.3 S 32 41 17 22 1025.9 1025.7 0.0
30/03:30am 15.2 9.3 11.0 76 2.2 S 33 41 18 22 1026.0 1025.8 0.0
30/03:00am 15.2 9.4 11.6 79 1.9 S 33 41 18 22 1026.1 1025.9 0.0
30/02:30am 15.3 9.8 11.9 80 1.8 S 32 41 17 22 1026.3 1026.1 0.0
30/02:00am 15.2 10.6 11.2 77 2.1 S 26 33 14 18 1026.4 1026.2 0.0
30/01:30am 16.2 10.7 12.0 76 2.3 SSE 32 41 17 22 1026.9 1026.7 0.0
30/01:00am 16.3 10.8 11.7 74 2.5 SSE 32 43 17 23 1027.2 1027.0 0.0
30/12:30am 16.4 11.1 11.1 71 2.9 S 30 41 16 22 1028.0 1027.8 0.0
30/12:29am 16.4 11.1 11.1 71 2.9 SSE 30 39 16 21 1028.0 1027.8 0.0
30/12:00am 17.3 10.1 9.2 59 4.2 SE 37 41 20 22 1027.8 1027.6 0.0
 
Date/Time
EST
Temp
°C
App
Temp
°C
Dew
Point
Rel
Hum
%
Delta-T
°C
Wind Press
QNH
hPa
Press
MSL
hPa
Rain
since 9 am
mm
Dir
 
Spd
km/h
Gust
km/h
Spd
kts
Gust
kts
29/11:30pm 17.3 10.2 9.7 61 4.0 SSE 37 44 20 24 1027.8 1027.6 0.0
29/11:00pm 17.3 10.8 10.2 63 3.8 SE 35 41 19 22 1028.1 1027.9 0.0
29/10:30pm 17.3 10.4 10.2 63 3.8 SE 37 41 20 22 1028.2 1028.0 0.0
29/10:00pm 17.3 10.1 10.4 64 3.7 SSE 39 44 21 24 1028.3 1028.2 0.0
29/09:30pm 17.4 9.9 10.8 65 3.6 SE 41 46 22 25 1028.4 1028.3 0.0
29/09:00pm 17.4 10.0 11.2 67 3.3 SE 41 48 22 26 1028.2 1028.0 0.0
29/08:30pm 17.4 9.5 10.8 65 3.6 SSE 43 48 23 26 1028.2 1028.0 0.0
29/08:00pm 17.3 9.4 10.7 65 3.5 SSE 43 48 23 26 1028.0 1027.8 0.0
29/07:30pm 17.3 9.8 10.7 65 3.5 SSE 41 48 22 26 1028.0 1027.8 0.0
29/07:00pm 17.3 9.1 10.4 64 3.7 SSE 44 52 24 28 1027.8 1027.6 0.0
29/06:30pm 17.4 9.6 11.2 67 3.4 SE 43 48 23 26 1027.7 1027.5 0.0
29/06:00pm 17.3 9.4 10.9 66 3.4 SSE 43 48 23 26 1027.4 1027.2 0.0
29/05:30pm 17.5 9.6 10.9 65 3.6 SE 43 50 23 27 1027.4 1027.2 0.0
29/05:00pm 17.4 9.5 10.8 65 3.5 SSE 43 50 23 27 1027.1 1026.9 0.0
29/04:30pm 17.5 9.6 10.9 65 3.6 SE 43 48 23 26 1027.1 1026.9 0.0
29/04:00pm 17.7 9.8 11.5 67 3.4 SSE 44 50 24 27 1027.0 1026.8 0.0
29/03:30pm 17.7 9.1 11.7 68 3.3 SSE 48 56 26 30 1026.9 1026.7 0.0
29/03:00pm 17.4 9.6 11.9 70 3.0 SSE 44 57 24 31 1026.9 1026.7 0.0
29/02:30pm 17.2 9.2 11.2 68 3.3 SSE 44 57 24 31 1027.0 1026.8 0.0
29/02:00pm 17.8 10.3 12.0 69 3.2 SSE 43 56 23 30 1027.2 1027.0 0.0
29/01:30pm 17.5 9.8 11.5 68 3.3 SSE 43 56 23 30 1027.2 1027.0 0.0
29/01:00pm 17.5 9.2 11.3 67 3.4 SSE 46 56 25 30 1027.5 1027.3 0.0
29/12:30pm 17.4 8.7 11.2 67 3.4 SSE 48 59 26 32 1027.9 1027.7 0.0
29/12:00pm 17.1 8.0 11.2 68 3.2 SSE 50 61 27 33 1028.5 1028.4 0.0
29/11:30am 17.1 8.3 10.9 67 3.3 SSE 48 59 26 32 1028.9 1028.8 0.0
29/11:00am 17.0 8.2 11.1 68 3.2 SSE 48 61 26 33 1029.3 1029.2 0.0
29/10:30am 16.9 8.1 11.0 68 3.2 SSE 48 59 26 32 1029.5 1029.4 0.0
29/10:00am 16.6 8.0 10.2 66 3.4 SSE 46 63 25 34 1029.7 1029.6 0.0
29/09:30am 16.2 7.2 10.1 67 3.2 SSE 48 59 26 32 1029.7 1029.6 0.0
29/09:00am 16.2 6.8 10.1 67 3.2 SSE 50 65 27 35 1029.7 1029.6 0.0
29/08:30am 16.2 7.2 10.3 68 3.1 SSE 48 61 26 33 1029.4 1029.3 0.0
29/08:00am 15.7 7.0 10.0 69 3.0 S 46 57 25 31 1029.5 1029.4 0.0
29/07:30am 15.6 6.5 9.9 69 3.0 SSE 48 61 26 33 1029.2 1029.1 0.0
29/07:00am 15.7 7.2 10.7 72 2.6 SSE 46 57 25 31 1029.0 1028.9 0.0
29/06:30am 15.6 7.1 10.6 72 2.7 SSE 46 56 25 30 1028.6 1028.5 0.0
29/06:00am 14.5 7.8 9.7 73 2.5 S 35 46 19 25 1028.5 1028.4 0.0
29/05:30am 14.2 7.3 9.0 71 2.7 S 35 44 19 24 1028.2 1028.0 0.0
29/05:00am 14.0 6.7 8.6 70 2.7 SSW 37 46 20 25 1028.3 1028.2 0.0
29/04:30am 14.1 7.5 8.7 70 2.7 SSW 33 44 18 24 1028.1 1027.9 0.0
29/04:00am 14.1 6.4 8.7 70 2.7 SSW 39 48 21 26 1028.0 1027.8 0.0
29/03:30am 14.4 6.8 9.2 71 2.7 S 39 50 21 27 1028.2 1028.0 0.0
29/03:00am 14.2 7.1 9.4 73 2.5 SSW 37 46 20 25 1028.4 1028.3 0.0
29/02:30am 15.1 8.6 10.5 74 2.4 S 35 50 19 27 1028.2 1028.0 0.0
29/02:13am 15.7 9.2 10.2 70 2.9 SSE 35 44 19 24 1028.2 1028.0 0.0
29/02:00am 17.2 8.8 5.5 46 5.6 SE 39 46 21 25 1028.2 1028.0 0.0
29/01:30am 17.2 10.2 8.4 56 4.5 SE 35 43 19 23 1028.5 1028.4 0.0
29/01:00am 16.9 10.2 7.3 53 4.8 SE 32 39 17 21 1028.7 1028.6 0.0
29/12:30am 17.0 9.6 5.0 45 5.8 SE 33 39 18 21 1028.9 1028.8 0.0
29/12:00am 16.9 9.7 4.9 45 5.7 SE 32 37 17 20 1028.9 1028.8 0.0
 
Date/Time
EST
Temp
°C
App
Temp
°C
Dew
Point
Rel
Hum
%
Delta-T
°C
Wind Press
QNH
hPa
Press
MSL
hPa
Rain
since 9 am
mm
Dir
 
Spd
km/h
Gust
km/h
Spd
kts
Gust
kts
28/11:30pm 17.0 8.9 5.3 46 5.6 SE 37 50 20 27 1029.2 1029.1 0.0
28/11:00pm 16.9 8.3 4.9 45 5.7 SE 39 48 21 26 1029.2 1029.1 0.0
28/10:30pm 17.1 9.0 6.9 51 5.1 SE 39 44 21 24 1029.3 1029.2 0.0
28/10:00pm 17.2 9.0 8.4 56 4.5 SE 41 48 22 26 1029.3 1029.2 0.0
28/09:30pm 17.2 9.3 7.8 54 4.8 SE 39 48 21 26 1029.4 1029.3 0.0
28/09:00pm 17.2 9.0 8.1 55 4.6 SE 41 48 22 26 1029.3 1029.2 0.0
28/08:30pm 17.4 9.2 8.3 55 4.7 SE 41 46 22 25 1029.2 1029.1 0.0
28/08:00pm 17.3 9.3 9.0 58 4.3 SE 41 48 22 26 1029.2 1029.1 0.0
28/07:30pm 17.3 9.2 8.7 57 4.4 SE 41 48 22 26 1028.9 1028.8 0.0
28/07:00pm 17.3 9.1 9.7 61 4.0 SE 43 48 23 26 1028.6 1028.5 0.0
28/06:30pm 17.3 9.9 9.7 61 4.0 SE 39 46 21 25 1028.3 1028.2 0.0
28/06:00pm 17.2 9.1 10.1 63 3.7 SE 43 48 23 26 1027.9 1027.7 0.0
28/05:30pm 17.2 9.5 10.1 63 3.8 SE 41 46 22 25 1027.7 1027.5 0.0
28/05:00pm 17.3 9.2 10.7 65 3.5 SE 44 50 24 27 1027.5 1027.3 0.0
28/04:30pm 17.3 8.8 10.7 65 3.5 SE 46 54 25 29 1027.1 1026.9 0.0
28/04:00pm 17.6 8.8 10.9 65 3.6 SE 48 54 26 29 1026.9 1026.7 0.0
28/03:30pm 17.7 9.3 9.8 60 4.2 SE 44 52 24 28 1026.8 1026.6 0.0
28/03:00pm 18.0 10.2 9.9 59 4.3 SE 41 46 22 25 1026.7 1026.5 0.0
28/02:30pm 18.1 10.0 10.0 59 4.3 SE 43 52 23 28 1026.8 1026.6 0.0
28/02:00pm 18.3 10.7 10.4 60 4.2 SE 41 48 22 26 1026.7 1026.5 0.0
28/01:46pm 19.0 12.4 11.3 61 4.2 SE 37 46 20 25 1026.9 1026.7 0.0
28/01:30pm 17.9 10.5 12.6 71 3.0 SSE 43 56 23 30 1026.7 1026.5 0.0
28/01:00pm 17.6 10.2 12.5 72 2.8 SSE 43 52 23 28 1027.1 1026.9 0.0
28/12:30pm 17.6 10.0 12.3 71 2.9 SSE 44 56 24 30 1027.1 1026.9 0.0
28/12:00pm 17.6 10.2 12.3 71 2.9 SSE 43 54 23 29 1027.4 1027.2 0.0
28/11:30am 17.1 9.6 12.2 73 2.7 SSE 43 52 23 28 1027.7 1027.5 0.0
28/11:00am 17.0 9.5 12.1 73 2.7 SSE 43 54 23 29 1028.0 1027.8 0.0
28/10:30am 16.7 8.9 11.8 73 2.7 SSE 44 54 24 29 1028.1 1027.9 0.0
28/10:00am 16.7 9.2 12.0 74 2.6 SSE 43 56 23 30 1028.2 1028.0 0.0
28/09:30am 16.0 8.1 11.6 75 2.4 SSE 44 57 24 31 1028.0 1027.8 0.0
28/09:00am 16.3 8.2 12.1 76 2.3 SSE 46 57 25 31 1027.8 1027.6 0.2
28/08:30am 16.2 9.0 12.0 76 2.3 SSE 41 50 22 27 1027.6 1027.4 0.2
28/08:00am 15.9 8.7 11.9 77 2.2 SSE 41 54 22 29 1027.2 1027.0 0.2
28/07:30am 16.5 9.2 12.7 78 2.1 SSE 43 52 23 28 1026.9 1026.7 0.2
28/07:00am 15.5 9.7 10.9 74 2.4 S 32 43 17 23 1026.9 1026.7 0.2
28/06:30am 14.9 8.5 9.3 69 2.9 S 33 43 18 23 1026.5 1026.3 0.2
28/06:00am 15.0 7.4 9.1 68 3.0 S 39 52 21 28 1026.2 1026.0 0.2
28/05:30am 14.9 7.0 7.9 63 3.5 S 39 50 21 27 1025.9 1025.7 0.2
28/05:00am 14.9 6.9 7.5 61 3.7 S 39 52 21 28 1025.5 1025.3 0.2
28/04:30am 15.0 6.5 7.1 59 3.9 S 41 52 22 28 1025.4 1025.2 0.2
28/04:00am 15.1 7.2 6.4 56 4.2 S 37 50 20 27 1025.1 1024.9 0.2
28/03:30am 14.8 8.0 5.1 52 4.6 S 30 37 16 20 1025.1 1024.9 0.2
28/03:00am 14.7 7.9 5.0 52 4.5 S 30 37 16 20 1025.0 1024.8 0.2
28/02:30am 14.8 7.6 4.8 51 4.7 S 32 39 17 21 1024.9 1024.7 0.2
28/02:00am 14.6 7.3 4.3 50 4.7 S 32 39 17 21 1025.0 1024.8 0.2
28/01:30am 14.4 7.1 4.7 52 4.5 SSW 32 37 17 20 1025.1 1024.9 0.2
28/01:00am 14.6 7.8 5.1 53 4.5 SSW 30 35 16 19 1025.5 1025.3 0.2
28/12:30am 15.1 8.0 5.3 52 4.7 S 32 37 17 20 1025.4 1025.2 0.2
28/12:00am 15.5 8.4 5.4 51 4.8 SSW 32 37 17 20 1025.3 1025.1 0.2
 
Date/Time
EST
Temp
°C
App
Temp
°C
Dew
Point
Rel
Hum
%
Delta-T
°C
Wind Press
QNH
hPa
Press
MSL
hPa
Rain
since 9 am
mm
Dir
 
Spd
km/h
Gust
km/h
Spd
kts
Gust
kts
27/11:30pm 15.9 8.9 5.8 51 4.9 S 32 39 17 21 1025.3 1025.1 0.2
27/11:00pm 16.3 9.3 5.9 50 5.0 S 32 39 17 21 1025.4 1025.2 0.2
27/10:30pm 17.0 10.2 5.0 45 5.8 SSW 30 35 16 19 1025.4 1025.2 0.2
27/10:00pm 17.2 10.7 4.5 43 6.0 SSW 28 33 15 18 1025.4 1025.2 0.2
27/09:30pm 16.7 11.7 6.5 51 5.0 SSW 22 30 12 16 1025.3 1025.1 0.2
27/09:00pm 17.2 11.6 5.5 46 5.6 SSW 24 28 13 15 1025.2 1025.0 0.2
27/08:30pm 18.0 12.5 5.9 45 5.9 SSW 24 28 13 15 1025.0 1024.8 0.2
27/08:00pm 17.9 12.5 6.4 47 5.7 SSW 24 30 13 16 1024.9 1024.7 0.2
27/07:30pm 18.2 12.5 6.7 47 5.8 SSW 26 30 14 16 1024.5 1024.3 0.2
27/07:00pm 18.3 12.3 7.1 48 5.6 SSW 28 32 15 17 1024.0 1023.9 0.2
27/06:30pm 18.6 13.8 7.4 48 5.7 S 22 28 12 15 1023.6 1023.5 0.2
27/06:00pm 19.8 13.9 7.5 45 6.3 SSE 28 32 15 17 1023.1 1023.0 0.2
27/05:30pm 19.3 14.7 11.1 59 4.5 SSE 26 33 14 18 1022.7 1022.6 0.2
27/05:00pm 19.3 15.1 11.1 59 4.5 SSE 24 28 13 15 1022.3 1022.2 0.2
27/04:30pm 19.2 15.6 10.5 57 4.7 SSE 20 26 11 14 1021.9 1021.8 0.2
27/04:00pm 19.3 15.9 11.3 60 4.4 SSE 20 24 11 13 1021.7 1021.6 0.2
27/03:30pm 19.4 16.0 11.4 60 4.4 SSE 20 24 11 13 1021.5 1021.4 0.2
27/03:00pm 19.7 16.5 11.2 58 4.7 SE 19 22 10 12 1021.4 1021.3 0.2
27/02:30pm 20.3 17.1 10.1 52 5.5 SSE 17 20 9 11 1021.4 1021.3 0.2
27/02:00pm 20.1 17.1 10.5 54 5.2 SSE 17 20 9 11 1021.7 1021.6 0.2
27/01:30pm 20.0 16.4 10.4 54 5.2 SSE 20 22 11 12 1021.9 1021.8 0.2
27/01:00pm 20.4 17.1 9.6 50 5.8 SSE 17 20 9 11 1022.1 1022.0 0.2
27/12:30pm 20.1 16.8 9.7 51 5.6 SSE 17 20 9 11 1022.4 1022.3 0.2
27/12:00pm 20.0 16.3 9.6 51 5.5 S 19 24 10 13 1022.9 1022.8 0.2
27/11:30am 19.9 16.4 10.3 54 5.2 SSE 19 24 10 13 1023.3 1023.2 0.2
27/11:00am 19.4 15.0 9.0 51 5.5 S 22 30 12 16 1023.8 1023.7 0.2
27/10:30am 19.4 15.7 9.6 53 5.2 SSE 19 22 10 12 1024.1 1024.0 0.2

Other Formats:

Comma delimited format used in spreadsheet applications
http://www.bom.gov.au/fwo/IDQ60801/IDQ60801.94584.axf

JavaScript Object Notation format (JSON) in row-major order
http://www.bom.gov.au/fwo/IDQ60801/IDQ60801.94584.json